createdAt,value
2018-12-10T00:02:23.417Z,1.92
2018-12-10T00:04:52.299Z,2.22
2018-12-10T00:07:20.699Z,1.90
2018-12-10T00:09:48.912Z,2.05
2018-12-10T00:12:16.996Z,3.08
2018-12-10T00:14:45.220Z,2.17
2018-12-10T00:17:13.516Z,1.80
2018-12-10T00:19:41.775Z,2.35
2018-12-10T00:22:10.527Z,1.95
2018-12-10T00:24:38.576Z,1.80
2018-12-10T00:27:06.718Z,1.67
2018-12-10T00:29:35.432Z,1.60
2018-12-10T00:32:03.551Z,2.05
2018-12-10T00:34:31.711Z,1.82
2018-12-10T00:37:00.343Z,1.65
2018-12-10T00:42:09.470Z,2.25
2018-12-10T00:44:37.829Z,1.62
2018-12-10T00:47:05.916Z,2.12
2018-12-10T00:49:34.247Z,1.40
2018-12-10T00:52:02.375Z,1.25
2018-12-10T00:54:30.562Z,2.12
2018-12-10T00:56:58.639Z,1.42
2018-12-10T00:59:26.794Z,1.50
2018-12-10T01:01:55.486Z,1.60
2018-12-10T01:04:24.202Z,1.67
2018-12-10T01:06:52.239Z,1.42
2018-12-10T01:09:20.528Z,1.37
2018-12-10T01:11:48.570Z,1.42
2018-12-10T01:14:16.591Z,1.50
2018-12-10T01:16:44.664Z,1.45
2018-12-10T01:19:13.120Z,1.62
2018-12-10T01:21:43.902Z,2.10
2018-12-10T01:24:12.013Z,1.30
2018-12-10T01:26:40.754Z,1.60
2018-12-10T01:29:08.839Z,1.82
2018-12-10T01:31:36.894Z,1.40
2018-12-10T01:34:05.018Z,2.00
2018-12-10T01:36:33.851Z,1.60
2018-12-10T01:39:02.031Z,1.90
2018-12-10T01:41:30.144Z,1.50
2018-12-10T01:43:58.235Z,1.60
2018-12-10T01:46:26.273Z,1.90
2018-12-10T01:48:54.566Z,1.50
2018-12-10T01:51:22.588Z,1.80
2018-12-10T01:53:50.933Z,1.32
2018-12-10T01:56:19.111Z,1.90
2018-12-10T01:58:47.254Z,2.08
2018-12-10T02:01:15.366Z,1.35
2018-12-10T02:03:43.522Z,1.20
2018-12-10T02:06:11.610Z,1.60
2018-12-10T02:08:39.750Z,1.75
2018-12-10T02:11:07.813Z,1.40
2018-12-10T02:13:35.887Z,1.80
2018-12-10T02:16:03.965Z,1.95
2018-12-10T02:18:32.010Z,1.75
2018-12-10T02:21:00.306Z,1.95
2018-12-10T02:23:28.408Z,1.45
2018-12-10T02:25:56.441Z,2.35
2018-12-10T02:28:29.999Z,1.30
2018-12-10T02:30:58.029Z,1.55
2018-12-10T02:33:26.044Z,1.75
2018-12-10T02:35:54.060Z,2.10
2018-12-10T02:38:22.209Z,2.08
2018-12-10T02:40:50.201Z,1.52
2018-12-10T02:43:18.241Z,1.05
2018-12-10T02:45:46.388Z,1.77
2018-12-10T02:48:14.485Z,1.98
2018-12-10T02:50:43.991Z,1.65
2018-12-10T02:53:12.127Z,1.60
2018-12-10T02:55:40.225Z,1.55
2018-12-10T02:58:08.335Z,1.15
2018-12-10T03:00:36.315Z,1.10
2018-12-10T03:03:04.541Z,1.15
2018-12-10T03:05:32.553Z,0.70
2018-12-10T03:08:00.697Z,0.88
2018-12-10T03:10:28.775Z,1.05
2018-12-10T03:12:56.771Z,1.05
2018-12-10T03:15:24.885Z,0.80
2018-12-10T03:17:52.909Z,0.98
2018-12-10T03:20:20.890Z,0.98
2018-12-10T03:22:48.932Z,0.93
2018-12-10T03:25:17.072Z,1.17
2018-12-10T03:27:45.198Z,0.82
2018-12-10T03:30:13.259Z,1.75
2018-12-10T03:32:41.387Z,1.10
2018-12-10T03:35:09.541Z,0.90
2018-12-10T03:37:37.661Z,1.22
2018-12-10T03:40:05.903Z,0.82
2018-12-10T03:42:33.955Z,0.80
2018-12-10T03:45:01.999Z,1.32
2018-12-10T03:47:30.169Z,1.57
2018-12-10T03:49:58.341Z,1.20
2018-12-10T03:52:26.467Z,1.40
2018-12-10T03:54:54.470Z,1.75
2018-12-10T03:57:22.470Z,1.20
2018-12-10T03:59:50.519Z,2.22
2018-12-10T04:02:18.699Z,2.10
2018-12-10T04:04:46.725Z,1.90
2018-12-10T04:07:14.726Z,2.30
2018-12-10T04:09:42.720Z,1.45
2018-12-10T04:12:10.825Z,1.50
2018-12-10T04:14:38.951Z,1.95
2018-12-10T04:17:07.004Z,2.37
2018-12-10T04:19:34.973Z,2.15
2018-12-10T04:22:03.018Z,2.00
2018-12-10T04:24:31.174Z,1.80
2018-12-10T04:26:59.345Z,2.40
2018-12-10T04:29:27.478Z,2.20
2018-12-10T04:31:55.515Z,1.70
2018-12-10T04:34:23.568Z,2.25
2018-12-10T04:36:51.619Z,2.72
2018-12-10T04:39:19.632Z,2.70
2018-12-10T04:41:47.719Z,2.52
2018-12-10T04:44:15.762Z,2.45
2018-12-10T04:46:43.931Z,1.90
2018-12-10T04:49:12.023Z,2.02
2018-12-10T04:51:40.151Z,2.20
2018-12-10T04:54:08.324Z,2.30
2018-12-10T04:56:36.370Z,1.52
2018-12-10T04:59:04.455Z,2.05
2018-12-10T05:01:32.571Z,1.75
2018-12-10T05:04:00.624Z,2.60
2018-12-10T05:06:28.619Z,2.27
2018-12-10T05:08:56.678Z,2.30
2018-12-10T05:11:24.712Z,1.72
2018-12-10T05:13:52.835Z,2.35
2018-12-10T05:16:20.806Z,2.17
2018-12-10T05:18:48.841Z,1.90
2018-12-10T05:21:16.999Z,2.17
2018-12-10T05:23:44.999Z,1.90
2018-12-10T05:26:13.022Z,3.05
2018-12-10T05:28:41.002Z,2.22
2018-12-10T05:31:09.029Z,1.67
2018-12-10T05:33:37.089Z,2.02
2018-12-10T05:36:05.187Z,2.17
2018-12-10T05:38:33.241Z,2.70
2018-12-10T05:41:01.286Z,2.20
2018-12-10T05:43:29.333Z,2.60
2018-12-10T05:45:57.371Z,2.22
2018-12-10T05:48:25.574Z,2.33
2018-12-10T05:50:53.652Z,2.60
2018-12-10T05:53:21.725Z,2.08
2018-12-10T05:55:49.849Z,2.50
2018-12-10T05:58:17.900Z,2.20
2018-12-10T06:00:45.993Z,1.77
2018-12-10T06:03:14.037Z,1.60
2018-12-10T06:05:42.023Z,2.12
2018-12-10T06:08:10.036Z,2.10
2018-12-10T06:10:38.082Z,2.98
2018-12-10T06:13:06.134Z,2.00
2018-12-10T06:15:34.178Z,1.85
2018-12-10T06:18:02.220Z,2.35
2018-12-10T06:20:30.234Z,2.37
2018-12-10T06:22:58.602Z,2.30
2018-12-10T06:25:26.634Z,1.70
2018-12-10T06:27:54.659Z,1.67
2018-12-10T06:30:22.713Z,1.50
2018-12-10T06:32:50.811Z,1.27
2018-12-10T06:35:18.883Z,1.57
2018-12-10T06:37:46.858Z,1.80
2018-12-10T06:40:15.011Z,1.37
2018-12-10T06:42:43.069Z,1.60
2018-12-10T06:45:11.114Z,2.08
2018-12-10T06:47:39.320Z,1.60
2018-12-10T06:50:08.179Z,1.98
2018-12-10T06:52:36.246Z,1.90
2018-12-10T06:55:05.142Z,2.10
2018-12-10T06:57:33.253Z,1.60
2018-12-10T07:00:01.626Z,1.70
2018-12-10T07:02:29.728Z,1.50
2018-12-10T07:04:57.722Z,1.80
2018-12-10T07:07:25.966Z,2.50
2018-12-10T07:09:54.311Z,1.62
2018-12-10T07:12:22.339Z,1.75
2018-12-10T07:14:50.293Z,2.25
2018-12-10T07:17:18.378Z,2.20
2018-12-10T07:19:46.527Z,1.60
2018-12-10T07:22:14.698Z,1.50
2018-12-10T07:24:42.733Z,2.10
2018-12-10T07:27:10.960Z,2.02
2018-12-10T07:29:38.969Z,1.00
2018-12-10T07:32:07.077Z,1.87
2018-12-10T07:34:35.144Z,1.70
2018-12-10T07:37:03.253Z,1.70
2018-12-10T07:39:31.324Z,1.90
2018-12-10T07:41:59.468Z,1.90
2018-12-10T07:44:27.498Z,2.12
2018-12-10T07:46:55.500Z,2.35
2018-12-10T07:49:23.616Z,2.33
2018-12-10T07:51:51.753Z,2.72
2018-12-10T07:54:19.786Z,2.65
2018-12-10T07:56:47.821Z,2.35
2018-12-10T07:59:15.911Z,2.22
2018-12-10T08:01:44.069Z,2.65
2018-12-10T08:04:12.145Z,2.85
2018-12-10T08:06:40.230Z,2.42
2018-12-10T08:09:08.254Z,2.25
2018-12-10T08:11:36.406Z,2.60
2018-12-10T08:14:04.453Z,2.58
2018-12-10T08:16:32.638Z,2.55
2018-12-10T08:19:01.146Z,2.30
2018-12-10T08:21:29.275Z,2.40
2018-12-10T08:23:57.457Z,2.05
2018-12-10T08:26:25.524Z,2.27
2018-12-10T08:29:00.028Z,1.82
2018-12-10T08:31:24.269Z,2.40
2018-12-10T08:33:52.666Z,2.70
2018-12-10T08:36:20.778Z,2.77
2018-12-10T08:38:48.993Z,3.10
2018-12-10T08:41:17.047Z,2.33
2018-12-10T08:43:45.053Z,1.82
2018-12-10T08:46:13.153Z,3.00
2018-12-10T08:48:41.176Z,2.80
2018-12-10T08:51:09.531Z,2.70
2018-12-10T08:53:37.768Z,2.30
2018-12-10T08:56:05.892Z,2.42
2018-12-10T08:58:33.889Z,2.70
2018-12-10T09:01:02.033Z,1.77
2018-12-10T09:03:30.151Z,1.90
2018-12-10T09:05:58.414Z,2.72
2018-12-10T09:08:26.503Z,2.02
2018-12-10T09:10:57.284Z,1.87
2018-12-10T09:13:25.354Z,1.70
2018-12-10T09:15:53.593Z,1.70
2018-12-10T09:18:21.778Z,2.10
2018-12-10T09:20:49.860Z,1.90
2018-12-10T09:23:17.928Z,1.60
2018-12-10T09:25:45.988Z,2.60
2018-12-10T09:28:19.497Z,1.87
2018-12-10T09:30:45.454Z,2.10
2018-12-10T09:33:14.764Z,2.45
2018-12-10T09:35:43.482Z,2.35
2018-12-10T09:38:11.911Z,3.17
2018-12-10T09:40:40.840Z,2.52
2018-12-10T09:43:08.880Z,3.15
2018-12-10T09:45:36.982Z,2.47
2018-12-10T09:48:05.106Z,3.25
2018-12-10T09:50:33.480Z,2.20
2018-12-10T09:53:01.556Z,2.90
2018-12-10T09:55:29.923Z,3.30
2018-12-10T09:57:58.177Z,3.10
2018-12-10T10:00:26.492Z,2.15
2018-12-10T10:02:54.650Z,2.33
2018-12-10T10:05:22.858Z,2.30
2018-12-10T10:07:50.895Z,2.50
2018-12-10T10:10:19.235Z,2.52
2018-12-10T10:12:47.550Z,2.15
2018-12-10T10:15:15.645Z,2.37
2018-12-10T10:17:44.572Z,2.90
2018-12-10T10:20:13.157Z,2.60
2018-12-10T10:22:41.188Z,2.22
2018-12-10T10:25:09.337Z,3.87
2018-12-10T10:27:37.357Z,2.37
2018-12-10T10:30:05.802Z,2.02
2018-12-10T10:32:34.027Z,1.75
2018-12-10T10:35:02.533Z,2.00
2018-12-10T10:37:30.584Z,2.30
2018-12-10T10:39:58.793Z,2.25
2018-12-10T10:42:27.170Z,2.02
2018-12-10T10:44:55.341Z,2.00
2018-12-10T10:47:23.486Z,2.35
2018-12-10T10:49:52.573Z,2.40
2018-12-10T10:52:20.754Z,2.33
2018-12-10T10:54:48.850Z,2.50
2018-12-10T10:57:16.937Z,1.85
2018-12-10T10:59:45.096Z,2.02
2018-12-10T11:02:19.344Z,2.10
2018-12-10T11:04:48.152Z,1.90
2018-12-10T11:07:16.260Z,1.77
2018-12-10T11:09:44.533Z,2.60
2018-12-10T11:12:12.827Z,2.47
2018-12-10T11:14:42.325Z,2.22
2018-12-10T11:17:10.515Z,2.10
2018-12-10T11:19:38.877Z,2.75
2018-12-10T11:22:07.020Z,1.90
2018-12-10T11:24:35.443Z,1.72
2018-12-10T11:27:03.721Z,1.70
2018-12-10T11:29:31.987Z,1.92
2018-12-10T11:32:00.196Z,2.05
2018-12-10T11:34:28.491Z,1.60
2018-12-10T11:36:56.549Z,1.52
2018-12-10T11:39:25.012Z,1.72
2018-12-10T11:41:54.152Z,1.85
2018-12-10T11:44:22.273Z,1.95
2018-12-10T11:46:51.232Z,2.10
2018-12-10T11:49:19.332Z,2.33
2018-12-10T11:51:51.944Z,1.62
2018-12-10T11:54:19.972Z,1.90
2018-12-10T11:56:48.134Z,2.15
2018-12-10T11:59:16.921Z,1.62
2018-12-10T12:01:45.417Z,1.22
2018-12-10T12:04:13.498Z,1.42
2018-12-10T12:06:41.607Z,1.60
2018-12-10T12:09:09.903Z,1.55
2018-12-10T12:11:38.491Z,2.22
2018-12-10T12:14:06.614Z,1.80
2018-12-10T12:16:34.781Z,1.57
2018-12-10T12:19:11.063Z,1.90
2018-12-10T12:21:34.393Z,1.35
2018-12-10T12:24:02.545Z,1.85
2018-12-10T12:26:30.663Z,1.45
2018-12-10T12:28:58.824Z,1.50
2018-12-10T12:31:26.960Z,2.52
2018-12-10T12:33:55.355Z,1.62
2018-12-10T12:36:23.466Z,1.55
2018-12-10T12:38:51.660Z,1.90
2018-12-10T12:41:19.876Z,1.90
2018-12-10T12:43:47.997Z,1.55
2018-12-10T12:46:16.225Z,1.42
2018-12-10T12:48:44.529Z,1.70
2018-12-10T12:51:12.949Z,1.85
2018-12-10T12:53:41.034Z,1.85
2018-12-10T12:56:09.308Z,1.20
2018-12-10T12:58:37.357Z,1.50
2018-12-10T13:01:05.612Z,1.57
2018-12-10T13:03:33.909Z,2.45
2018-12-10T13:06:06.717Z,1.75
2018-12-10T13:08:32.273Z,1.90
2018-12-10T13:11:00.411Z,2.25
2018-12-10T13:13:28.480Z,1.90
2018-12-10T13:15:56.598Z,2.77
2018-12-10T13:18:24.755Z,2.25
2018-12-10T13:20:52.927Z,3.22
2018-12-10T13:23:21.391Z,2.55
2018-12-10T13:25:49.518Z,2.77
2018-12-10T13:28:17.577Z,2.35
2018-12-10T13:30:45.712Z,2.65
2018-12-10T13:33:13.892Z,1.60
2018-12-10T13:35:42.772Z,2.70
2018-12-10T13:38:12.561Z,1.95
2018-12-10T13:40:41.866Z,2.27
2018-12-10T13:43:09.994Z,2.80
2018-12-10T13:45:38.680Z,2.55
2018-12-10T13:48:06.855Z,2.55
2018-12-10T13:53:32.031Z,1.65
2018-12-10T13:56:00.541Z,2.30
2018-12-10T13:58:28.861Z,1.87
2018-12-10T14:00:57.213Z,1.92
2018-12-10T14:03:25.491Z,1.98
2018-12-10T14:05:53.772Z,2.52
2018-12-10T14:08:21.932Z,2.10
2018-12-10T14:10:50.108Z,2.12
2018-12-10T14:13:18.247Z,2.60
2018-12-10T14:15:46.479Z,2.40
2018-12-10T14:18:14.556Z,2.27
2018-12-10T14:20:43.570Z,1.75
2018-12-10T14:23:12.001Z,1.87
2018-12-10T14:25:40.179Z,2.40
2018-12-10T14:28:08.463Z,2.27
2018-12-10T14:30:38.196Z,2.30
2018-12-10T14:33:06.507Z,2.60
2018-12-10T14:35:34.616Z,2.30
2018-12-10T14:38:03.066Z,2.35
2018-12-10T14:40:31.290Z,2.60
2018-12-10T14:42:59.431Z,3.25
2018-12-10T14:45:28.198Z,2.85
2018-12-10T14:47:57.304Z,2.90
2018-12-10T14:50:25.382Z,3.30
2018-12-10T14:52:53.874Z,2.90
2018-12-10T14:55:21.962Z,2.83
2018-12-10T14:57:50.497Z,5.97
2018-12-10T15:00:18.643Z,3.55
2018-12-10T15:02:47.020Z,3.85
2018-12-10T15:05:15.533Z,3.00
2018-12-10T15:07:43.699Z,3.70
2018-12-10T15:10:14.099Z,5.30
2018-12-10T15:12:42.294Z,3.33
2018-12-10T15:15:11.334Z,3.42
2018-12-10T15:17:40.013Z,3.77
2018-12-10T15:20:12.408Z,3.75
2018-12-10T15:22:40.577Z,3.27
2018-12-10T15:25:10.745Z,4.35
2018-12-10T15:27:39.585Z,3.17
2018-12-10T15:30:11.073Z,2.35
2018-12-10T15:32:40.283Z,2.15
2018-12-10T15:35:09.077Z,2.42
2018-12-10T15:37:37.203Z,2.42
2018-12-10T15:40:07.009Z,3.17
2018-12-10T15:42:35.202Z,2.50
2018-12-10T15:45:04.047Z,2.00
2018-12-10T15:47:32.334Z,2.12
2018-12-10T15:50:00.680Z,2.60
2018-12-10T15:52:29.170Z,2.15
2018-12-10T15:54:57.345Z,2.52
2018-12-10T15:57:25.691Z,1.98
2018-12-10T15:59:54.063Z,2.17
2018-12-10T16:02:22.431Z,1.90
2018-12-10T16:04:50.595Z,2.05
2018-12-10T16:07:19.315Z,2.47
2018-12-10T16:09:47.661Z,2.25
2018-12-10T16:12:15.871Z,2.10
2018-12-10T16:14:44.221Z,2.30
2018-12-10T16:17:12.494Z,1.92
2018-12-10T16:19:40.679Z,1.72
2018-12-10T16:22:08.866Z,2.10
2018-12-10T16:24:37.190Z,2.35
2018-12-10T16:27:05.481Z,2.20
2018-12-10T16:29:33.667Z,2.30
2018-12-10T16:32:02.018Z,2.10
2018-12-10T16:34:31.309Z,2.08
2018-12-10T16:36:59.602Z,2.35
2018-12-10T16:39:28.005Z,2.42
2018-12-10T16:41:56.419Z,2.40
2018-12-10T16:44:24.581Z,2.35
2018-12-10T16:46:52.922Z,2.15
2018-12-10T16:49:21.166Z,2.12
2018-12-10T16:51:49.498Z,2.00
2018-12-10T16:54:17.761Z,2.17
2018-12-10T16:56:46.222Z,2.00
2018-12-10T16:59:14.405Z,3.10
2018-12-10T17:01:43.915Z,2.52
2018-12-10T17:04:12.099Z,1.98
2018-12-10T17:06:40.373Z,2.30
2018-12-10T17:09:11.126Z,1.77
2018-12-10T17:11:39.726Z,1.67
2018-12-10T17:14:08.389Z,2.15
2018-12-10T17:16:37.712Z,2.25
2018-12-10T17:19:06.066Z,1.90
2018-12-10T17:21:34.393Z,2.10
2018-12-10T17:24:02.646Z,1.98
2018-12-10T17:26:31.148Z,2.22
2018-12-10T17:28:59.331Z,2.08
2018-12-10T17:31:27.601Z,2.00
2018-12-10T17:33:55.879Z,2.00
2018-12-10T17:36:24.326Z,2.15
2018-12-10T17:38:53.039Z,1.75
2018-12-10T17:41:22.042Z,2.15
2018-12-10T17:43:50.535Z,2.00
2018-12-10T17:46:19.022Z,1.92
2018-12-10T17:48:47.979Z,2.75
2018-12-10T17:51:16.293Z,2.50
2018-12-10T17:53:45.059Z,2.12
2018-12-10T17:56:13.591Z,3.85
2018-12-10T17:58:42.091Z,2.80
2018-12-10T18:01:11.272Z,2.60
2018-12-10T18:03:39.658Z,2.95
2018-12-10T18:06:07.929Z,2.98
2018-12-10T18:08:36.193Z,3.37
2018-12-10T18:11:04.383Z,2.60
2018-12-10T18:13:32.640Z,2.60
2018-12-10T18:16:00.817Z,3.20
2018-12-10T18:18:29.548Z,2.77
2018-12-10T18:20:57.718Z,3.75
2018-12-10T18:23:26.129Z,3.60
2018-12-10T18:25:54.300Z,3.35
2018-12-10T18:28:22.702Z,3.60
2018-12-10T18:30:51.308Z,3.72
2018-12-10T18:33:19.520Z,3.50
2018-12-10T18:35:48.281Z,3.12
2018-12-10T18:38:16.547Z,2.98
2018-12-10T18:40:44.916Z,3.62
2018-12-10T18:43:13.216Z,3.25
2018-12-10T18:45:41.529Z,3.70
2018-12-10T18:48:09.914Z,3.40
2018-12-10T18:50:38.232Z,3.33
2018-12-10T18:53:06.520Z,4.40
2018-12-10T18:55:34.854Z,3.80
2018-12-10T18:58:03.262Z,4.00
2018-12-10T19:00:31.645Z,3.92
2018-12-10T19:02:59.909Z,2.95
2018-12-10T19:05:28.915Z,3.72
2018-12-10T19:07:57.242Z,3.50
2018-12-10T19:10:25.531Z,3.90
2018-12-10T19:12:54.059Z,3.77
2018-12-10T19:15:22.317Z,3.92
2018-12-10T19:17:50.596Z,4.20
2018-12-10T19:20:18.932Z,3.60
2018-12-10T19:22:47.214Z,3.45
2018-12-10T19:25:15.884Z,3.08
2018-12-10T19:27:44.339Z,2.10
2018-12-10T19:30:12.649Z,3.02
2018-12-10T19:32:40.983Z,1.62
2018-12-10T19:35:09.486Z,2.60
2018-12-10T19:37:37.820Z,2.72
2018-12-10T19:40:07.503Z,3.02
2018-12-10T19:42:35.878Z,2.50
2018-12-10T19:45:06.365Z,2.52
2018-12-10T19:47:34.667Z,3.10
2018-12-10T19:50:03.685Z,3.20
2018-12-10T19:52:32.014Z,1.90
2018-12-10T19:55:00.594Z,3.17
2018-12-10T19:57:29.025Z,2.75
2018-12-10T19:59:57.417Z,2.60
2018-12-10T20:02:25.717Z,2.70
2018-12-10T20:04:54.153Z,2.67
2018-12-10T20:07:22.413Z,2.92
2018-12-10T20:09:50.645Z,2.85
2018-12-10T20:12:18.989Z,2.90
2018-12-10T20:14:47.261Z,2.90
2018-12-10T20:17:15.564Z,3.08
2018-12-10T20:19:43.859Z,2.83
2018-12-10T20:22:12.022Z,2.47
2018-12-10T20:24:40.264Z,2.80
2018-12-10T20:27:08.622Z,3.05
2018-12-10T20:29:36.880Z,2.90
2018-12-10T20:32:05.227Z,2.90
2018-12-10T20:34:33.701Z,3.00
2018-12-10T20:37:02.112Z,2.80
2018-12-10T20:39:30.440Z,3.65
2018-12-10T20:41:58.930Z,2.65
2018-12-10T20:44:27.183Z,2.77
2018-12-10T20:46:55.681Z,2.40
2018-12-10T20:49:23.967Z,2.98
2018-12-10T20:51:52.412Z,2.52
2018-12-10T20:54:20.770Z,2.70
2018-12-10T20:56:49.161Z,3.60
2018-12-10T20:59:17.462Z,2.22
2018-12-10T21:01:46.094Z,2.40
2018-12-10T21:04:14.641Z,2.27
2018-12-10T21:06:43.182Z,2.62
2018-12-10T21:09:11.614Z,3.22
2018-12-10T21:11:40.019Z,3.10
2018-12-10T21:14:08.412Z,2.30
2018-12-10T21:16:36.818Z,2.60
2018-12-10T21:19:05.120Z,2.70
2018-12-10T21:21:33.349Z,2.75
2018-12-10T21:24:01.542Z,3.27
2018-12-10T21:26:29.855Z,2.75
2018-12-10T21:28:58.076Z,2.90
2018-12-10T21:31:26.265Z,3.00
2018-12-10T21:33:55.235Z,2.92
2018-12-10T21:36:23.608Z,3.08
2018-12-10T21:38:52.043Z,2.95
2018-12-10T21:41:20.240Z,2.83
2018-12-10T21:43:48.554Z,3.27
2018-12-10T21:46:16.790Z,3.15
2018-12-10T21:48:45.143Z,3.05
2018-12-10T21:51:13.387Z,2.47
2018-12-10T21:53:41.868Z,2.85
2018-12-10T21:56:10.152Z,2.58
2018-12-10T21:58:38.291Z,3.10
2018-12-10T22:01:07.801Z,2.35
2018-12-10T22:03:36.482Z,3.20
2018-12-10T22:06:04.864Z,3.05
2018-12-10T22:08:33.250Z,3.77
2018-12-10T22:11:01.424Z,2.62
2018-12-10T22:13:29.589Z,3.15
2018-12-10T22:15:57.935Z,2.87
2018-12-10T22:18:26.155Z,2.58
2018-12-10T22:20:54.318Z,3.00
2018-12-10T22:23:22.771Z,2.83
2018-12-10T22:25:50.933Z,3.20
2018-12-10T22:28:19.100Z,2.65
2018-12-10T22:30:47.188Z,2.80
2018-12-10T22:33:15.427Z,2.72
2018-12-10T22:35:43.775Z,2.45
2018-12-10T22:38:11.992Z,2.65
2018-12-10T22:40:40.133Z,2.40
2018-12-10T22:43:08.307Z,3.67
2018-12-10T22:45:36.504Z,3.17
2018-12-10T22:48:05.666Z,2.65
2018-12-10T22:50:34.691Z,1.75
2018-12-10T22:53:03.109Z,2.40
2018-12-10T22:55:31.333Z,2.45
2018-12-10T22:58:00.005Z,2.30
2018-12-10T23:00:34.137Z,2.77
2018-12-10T23:03:02.352Z,2.45
2018-12-10T23:05:30.559Z,2.42
2018-12-10T23:07:58.758Z,2.90
2018-12-10T23:10:26.934Z,2.27
2018-12-10T23:12:55.115Z,3.17
2018-12-10T23:15:23.550Z,2.30
2018-12-10T23:17:52.173Z,2.05
2018-12-10T23:20:27.154Z,2.40
2018-12-10T23:22:55.667Z,2.65
2018-12-10T23:25:23.802Z,2.60
2018-12-10T23:27:51.948Z,2.30
2018-12-10T23:30:19.984Z,2.50
2018-12-10T23:32:48.180Z,1.95
2018-12-10T23:35:23.000Z,1.90
2018-12-10T23:37:51.176Z,2.12
2018-12-10T23:40:19.336Z,1.87
2018-12-10T23:42:53.137Z,1.80
2018-12-10T23:45:21.267Z,2.00
2018-12-10T23:47:49.389Z,2.00
2018-12-10T23:50:17.494Z,2.33
2018-12-10T23:52:45.719Z,1.90
2018-12-10T23:55:13.851Z,2.20
2018-12-10T23:57:42.008Z,2.15
